createdAt,value
2018-10-19T00:00:41.434Z,80.98
2018-10-19T00:01:41.466Z,81.07
2018-10-19T00:02:41.479Z,81.22
2018-10-19T00:03:41.409Z,81.3
2018-10-19T00:04:41.452Z,81.27
2018-10-19T00:05:41.797Z,81.03
2018-10-19T00:06:41.430Z,81.37
2018-10-19T00:07:41.411Z,81.65
2018-10-19T00:08:41.435Z,81.34
2018-10-19T00:09:41.393Z,81.6
2018-10-19T00:10:41.455Z,81.42
2018-10-19T00:11:41.442Z,81.63
2018-10-19T00:12:41.507Z,81.41
2018-10-19T00:13:41.420Z,81.88
2018-10-19T00:14:41.413Z,81.97
2018-10-19T00:16:41.377Z,82.28
2018-10-19T00:17:41.400Z,82.36
2018-10-19T00:18:41.648Z,82.09
2018-10-19T00:19:41.411Z,81.91
2018-10-19T00:20:41.421Z,81.75
2018-10-19T00:21:41.386Z,82.08
2018-10-19T00:22:41.409Z,81.95
2018-10-19T00:23:41.408Z,81.98
2018-10-19T00:24:41.484Z,81.95
2018-10-19T00:25:41.399Z,82.09
2018-10-19T00:26:41.719Z,82.27
2018-10-19T00:27:41.455Z,81.83
2018-10-19T00:28:41.424Z,82.02
2018-10-19T00:29:41.419Z,81.63
2018-10-19T00:30:41.733Z,81.34
2018-10-19T00:31:41.400Z,81.27
2018-10-19T00:32:41.411Z,81.03
2018-10-19T00:33:41.458Z,81.36
2018-10-19T00:34:41.362Z,81.17
2018-10-19T00:35:41.523Z,81.12
2018-10-19T00:36:41.743Z,81.43
2018-10-19T00:37:41.375Z,81.02
2018-10-19T00:38:41.394Z,81.49
2018-10-19T00:39:41.593Z,81.17
2018-10-19T00:40:41.432Z,81.52
2018-10-19T00:41:41.492Z,81.64
2018-10-19T00:42:41.373Z,81.71
2018-10-19T00:43:41.451Z,81.37
2018-10-19T00:44:41.384Z,81.29
2018-10-19T00:45:41.713Z,81.28
2018-10-19T00:46:41.372Z,81.16
2018-10-19T00:47:41.454Z,81.19
2018-10-19T00:48:41.559Z,81.47
2018-10-19T00:49:41.537Z,81.39
2018-10-19T00:50:41.451Z,82.15
2018-10-19T00:51:41.351Z,81.82
2018-10-19T00:52:41.457Z,81.88
2018-10-19T00:53:41.350Z,81.86
2018-10-19T00:54:41.765Z,81.96
2018-10-19T00:55:41.614Z,82.01
2018-10-19T00:56:41.383Z,81.67
2018-10-19T00:57:41.362Z,82.6
2018-10-19T00:58:41.394Z,82.49
2018-10-19T00:59:41.547Z,82.01
2018-10-19T01:00:41.544Z,82.26
2018-10-19T01:01:41.456Z,81.9
2018-10-19T01:02:41.412Z,81.59
2018-10-19T01:03:41.424Z,81.96
2018-10-19T01:04:41.527Z,81.87
2018-10-19T01:05:41.493Z,81.82
2018-10-19T01:06:41.777Z,82.09
2018-10-19T01:07:41.446Z,82.13
2018-10-19T01:08:41.380Z,81.74
2018-10-19T01:09:41.464Z,81.59
2018-10-19T01:10:41.469Z,81.7
2018-10-19T01:11:41.335Z,81.95
2018-10-19T01:12:41.443Z,81.65
2018-10-19T01:13:41.540Z,81.59
2018-10-19T01:14:41.341Z,82.08
2018-10-19T01:15:41.414Z,82.76
2018-10-19T01:16:41.439Z,82.23
2018-10-19T01:17:41.467Z,82.34
2018-10-19T01:18:41.371Z,82.6
2018-10-19T01:19:41.365Z,82.38
2018-10-19T01:20:41.322Z,82.3
2018-10-19T01:21:41.548Z,82.23
2018-10-19T01:22:41.360Z,82.07
2018-10-19T01:23:41.371Z,82.19
2018-10-19T01:24:41.289Z,82.08
2018-10-19T01:25:41.613Z,82.34
2018-10-19T01:26:41.345Z,82.62
2018-10-19T01:27:41.628Z,82.94
2018-10-19T01:28:41.407Z,82.89
2018-10-19T01:29:41.340Z,82.59
2018-10-19T01:30:41.367Z,82.22
2018-10-19T01:31:41.339Z,82.29
2018-10-19T01:32:41.307Z,81.91
2018-10-19T01:33:41.428Z,82.29
2018-10-19T01:34:41.322Z,82.02
2018-10-19T01:35:41.423Z,81.85
2018-10-19T01:36:41.291Z,81.81
2018-10-19T01:37:41.596Z,82.2
2018-10-19T01:38:41.305Z,82
2018-10-19T01:39:41.332Z,82.07
2018-10-19T01:40:41.285Z,81.74
2018-10-19T01:41:41.627Z,82.37
2018-10-19T01:42:41.292Z,82.32
2018-10-19T01:43:41.352Z,82.32
2018-10-19T01:44:41.299Z,82.11
2018-10-19T01:45:41.564Z,82.1
2018-10-19T01:46:41.287Z,81.96
2018-10-19T01:47:41.410Z,82.58
2018-10-19T01:48:41.276Z,82.7
2018-10-19T01:49:41.450Z,82.72
2018-10-19T01:50:41.344Z,82.36
2018-10-19T01:51:41.279Z,82.61
2018-10-19T01:52:41.303Z,82.84
2018-10-19T01:53:41.301Z,82.58
2018-10-19T01:54:41.370Z,82.64
2018-10-19T01:55:41.308Z,82.63
2018-10-19T01:56:41.274Z,83.02
2018-10-19T01:57:41.364Z,82.63
2018-10-19T01:58:41.405Z,82.75
2018-10-19T01:59:41.256Z,82.74
2018-10-19T02:00:41.370Z,82.51
2018-10-19T02:01:41.982Z,82.72
2018-10-19T02:02:41.565Z,82.48
2018-10-19T02:03:41.644Z,82.24
2018-10-19T02:04:41.387Z,82.11
2018-10-19T02:05:41.242Z,82.41
2018-10-19T02:06:41.270Z,82.73
2018-10-19T02:07:41.451Z,82.84
2018-10-19T02:08:41.404Z,82.73
2018-10-19T02:09:41.265Z,82.72
2018-10-19T02:10:41.293Z,82.92
2018-10-19T02:11:41.348Z,82.59
2018-10-19T02:12:41.375Z,82.87
2018-10-19T02:13:41.289Z,82.93
2018-10-19T02:14:41.554Z,82.7
2018-10-19T02:15:41.399Z,82.58
2018-10-19T02:16:41.269Z,82.52
2018-10-19T02:17:41.442Z,82.22
2018-10-19T02:18:41.486Z,82.4
2018-10-19T02:19:41.349Z,82.72
2018-10-19T02:20:41.279Z,82.9
2018-10-19T02:21:41.287Z,82.65
2018-10-19T02:22:41.302Z,82.46
2018-10-19T02:23:41.383Z,82.71
2018-10-19T02:24:41.265Z,82.58
2018-10-19T02:25:41.233Z,82.71
2018-10-19T02:26:41.263Z,82.8
2018-10-19T02:27:41.478Z,82.61
2018-10-19T02:28:41.313Z,82.52
2018-10-19T02:29:41.288Z,82.68
2018-10-19T02:30:41.286Z,82.71
2018-10-19T02:31:41.318Z,82.98
2018-10-19T02:32:41.226Z,83.07
2018-10-19T02:33:41.632Z,83.27
2018-10-19T02:34:41.223Z,83.06
2018-10-19T02:35:41.499Z,83.05
2018-10-19T02:36:41.239Z,83.51
2018-10-19T02:37:41.221Z,83.34
2018-10-19T02:38:41.381Z,83.57
2018-10-19T02:39:41.530Z,83.43
2018-10-19T02:40:41.402Z,83.25
2018-10-19T02:41:41.542Z,82.97
2018-10-19T02:42:41.643Z,82.96
2018-10-19T02:43:41.245Z,83.1
2018-10-19T02:44:41.206Z,83.36
2018-10-19T02:45:41.388Z,83.41
2018-10-19T02:46:41.259Z,83.21
2018-10-19T02:47:41.194Z,83.33
2018-10-19T02:48:41.590Z,82.9
2018-10-19T02:49:41.233Z,83.3
2018-10-19T02:50:41.249Z,83.09
2018-10-19T02:51:41.203Z,82.76
2018-10-19T02:52:41.208Z,82.78
2018-10-19T02:53:41.216Z,83.32
2018-10-19T02:54:41.186Z,83.32
2018-10-19T02:55:41.203Z,83.05
2018-10-19T02:56:41.270Z,82.9
2018-10-19T02:57:41.557Z,82.94
2018-10-19T02:58:41.389Z,82.77
2018-10-19T02:59:41.475Z,83.43
2018-10-19T03:00:41.437Z,83.53
2018-10-19T03:01:41.212Z,83.24
2018-10-19T03:02:41.190Z,83.26
2018-10-19T03:03:41.359Z,83.56
2018-10-19T03:04:41.225Z,83.52
2018-10-19T03:05:41.196Z,83.41
2018-10-19T03:06:41.218Z,83.35
2018-10-19T03:07:41.190Z,83.03
2018-10-19T03:08:41.373Z,83.34
2018-10-19T03:09:41.247Z,82.98
2018-10-19T03:10:41.278Z,83.21
2018-10-19T03:11:41.284Z,83.02
2018-10-19T03:12:41.218Z,83.1
2018-10-19T03:13:41.182Z,82.72
2018-10-19T03:14:41.204Z,83.05
2018-10-19T03:15:41.327Z,83.55
2018-10-19T03:16:41.181Z,84.04
2018-10-19T03:17:41.164Z,84.09
2018-10-19T03:18:41.182Z,84.31
2018-10-19T03:19:41.515Z,84.42
2018-10-19T03:20:41.176Z,83.7
2018-10-19T03:21:41.183Z,83.73
2018-10-19T03:23:07.597Z,83.33
2018-10-19T03:24:07.339Z,83.82
2018-10-19T03:25:07.330Z,83.78
2018-10-19T03:26:07.324Z,83.85
2018-10-19T03:27:07.467Z,83.41
2018-10-19T03:28:07.339Z,83.75
2018-10-19T03:29:07.448Z,83.88
2018-10-19T03:30:07.354Z,83.79
2018-10-19T03:31:07.472Z,83.71
2018-10-19T03:32:07.313Z,83.82
2018-10-19T03:33:07.356Z,83.78
2018-10-19T03:34:07.681Z,83.82
2018-10-19T03:35:07.364Z,83.48
2018-10-19T03:36:07.292Z,83.29
2018-10-19T03:37:07.322Z,83.45
2018-10-19T03:38:07.649Z,83.78
2018-10-19T03:39:07.370Z,84.03
2018-10-19T03:40:07.338Z,83.57
2018-10-19T03:41:07.396Z,83.4
2018-10-19T03:42:07.369Z,83.13
2018-10-19T03:43:07.521Z,83.2
2018-10-19T03:44:07.436Z,83.55
2018-10-19T03:45:07.374Z,83.91
2018-10-19T03:46:07.603Z,83.36
2018-10-19T03:47:07.310Z,83.54
2018-10-19T03:48:07.370Z,83.48
2018-10-19T03:49:07.361Z,83.96
2018-10-19T03:50:07.289Z,83.75
2018-10-19T03:51:07.378Z,83.99
2018-10-19T03:52:07.286Z,83.69
2018-10-19T03:53:07.437Z,83.79
2018-10-19T03:54:07.256Z,83.7
2018-10-19T03:55:07.323Z,83.55
2018-10-19T03:56:07.434Z,83.89
2018-10-19T03:57:07.400Z,83.62
2018-10-19T03:58:07.294Z,83.53
2018-10-19T03:59:07.313Z,84.08
2018-10-19T04:00:07.709Z,83.96
2018-10-19T04:01:07.349Z,83.73
2018-10-19T04:02:07.377Z,84.1
2018-10-19T04:03:07.736Z,84.35
2018-10-19T04:04:07.332Z,84.3
2018-10-19T04:05:07.338Z,84.03
2018-10-19T04:06:07.403Z,84.19
2018-10-19T04:07:07.380Z,83.9
2018-10-19T04:08:07.261Z,84.05
2018-10-19T04:09:07.335Z,84.15
2018-10-19T04:10:07.361Z,84.02
2018-10-19T04:11:07.323Z,84.17
2018-10-19T04:12:07.289Z,84.11
2018-10-19T04:13:07.496Z,84.13
2018-10-19T04:14:07.256Z,84
2018-10-19T04:15:07.360Z,84.15
2018-10-19T04:16:07.310Z,83.84
2018-10-19T04:17:07.450Z,83.85
2018-10-19T04:18:07.243Z,83.9
2018-10-19T04:19:07.250Z,83.86
2018-10-19T04:20:07.381Z,83.63
2018-10-19T04:21:07.307Z,83.67
2018-10-19T04:22:07.275Z,83.13
2018-10-19T04:23:07.311Z,83.59
2018-10-19T04:24:07.683Z,83.59
2018-10-19T04:25:07.266Z,83.5
2018-10-19T04:26:07.685Z,83.29
2018-10-19T04:27:07.408Z,83.21
2018-10-19T04:28:07.239Z,83.26
2018-10-19T04:29:07.295Z,83.16
2018-10-19T04:30:07.223Z,83.21
2018-10-19T04:31:07.281Z,83.18
2018-10-19T04:32:07.339Z,83.09
2018-10-19T04:33:07.428Z,83.03
2018-10-19T04:34:07.619Z,82.79
2018-10-19T04:35:07.279Z,82.79
2018-10-19T04:36:07.268Z,82.93
2018-10-19T04:37:07.223Z,82.8
2018-10-19T04:38:07.202Z,82.95
2018-10-19T04:39:07.280Z,82.92
2018-10-19T04:40:07.192Z,82.57
2018-10-19T04:41:07.583Z,82.79
2018-10-19T04:42:07.395Z,82.55
2018-10-19T04:43:07.208Z,82.72
2018-10-19T04:44:07.442Z,82.4
2018-10-19T04:45:07.268Z,82.14
2018-10-19T04:46:07.229Z,82.48
2018-10-19T04:47:07.363Z,82.24
2018-10-19T04:48:07.347Z,82.59
2018-10-19T04:49:07.273Z,82.32
2018-10-19T04:50:07.208Z,82.74
2018-10-19T04:51:07.422Z,82.81
2018-10-19T04:52:08.503Z,82.69
2018-10-19T04:53:07.381Z,82.79
2018-10-19T04:54:07.215Z,82.64
2018-10-19T04:55:07.241Z,82.72
2018-10-19T04:56:07.336Z,82.73
2018-10-19T04:57:07.269Z,82.67
2018-10-19T04:58:07.198Z,82.91
2018-10-19T04:59:07.265Z,83.09
2018-10-19T05:00:07.180Z,83.16
2018-10-19T05:01:07.246Z,83.2
2018-10-19T05:02:07.207Z,82.97
2018-10-19T05:03:07.446Z,82.9
2018-10-19T05:04:07.259Z,83.06
2018-10-19T05:05:07.322Z,83.94
2018-10-19T05:06:07.277Z,83.69
2018-10-19T05:07:07.237Z,83.94
2018-10-19T05:08:07.591Z,83.92
2018-10-19T05:09:07.269Z,84.01
2018-10-19T05:10:07.178Z,83.74
2018-10-19T05:11:07.259Z,84.14
2018-10-19T05:12:07.137Z,83.91
2018-10-19T05:13:07.338Z,83.85
2018-10-19T05:14:07.360Z,84.08
2018-10-19T05:15:07.626Z,84.02
2018-10-19T05:17:07.271Z,84.56
2018-10-19T05:18:07.143Z,83.78
2018-10-19T05:19:07.300Z,84.22
2018-10-19T05:20:07.349Z,84.12
2018-10-19T05:21:07.532Z,84.04
2018-10-19T05:22:07.215Z,84.07
2018-10-19T05:23:07.186Z,83.97
2018-10-19T05:24:07.139Z,84.05
2018-10-19T05:25:07.146Z,83.66
2018-10-19T05:26:07.197Z,83.82
2018-10-19T05:27:07.139Z,83.89
2018-10-19T05:28:07.167Z,83.8
2018-10-19T05:29:07.180Z,83.94
2018-10-19T05:30:07.364Z,83.76
2018-10-19T05:31:07.169Z,83.8
2018-10-19T05:32:07.268Z,83.55
2018-10-19T05:33:07.550Z,83.9
2018-10-19T05:34:07.199Z,83.68
2018-10-19T05:35:07.180Z,83.46
2018-10-19T05:36:07.283Z,83.55
2018-10-19T05:37:07.194Z,83.3
2018-10-19T05:38:07.275Z,83.34
2018-10-19T05:39:07.196Z,83.67
2018-10-19T05:40:07.285Z,83.36
2018-10-19T05:41:07.265Z,83.73
2018-10-19T05:42:07.415Z,83.61
2018-10-19T05:43:07.250Z,83.82
2018-10-19T05:44:07.532Z,83.92
2018-10-19T05:45:07.126Z,83.61
2018-10-19T05:46:07.140Z,83.45
2018-10-19T05:47:07.229Z,83.28
2018-10-19T05:48:07.134Z,83.53
2018-10-19T05:49:07.365Z,83.08
2018-10-19T05:50:07.153Z,83.25
2018-10-19T05:51:07.114Z,83.27
2018-10-19T05:52:07.223Z,83.1
2018-10-19T05:53:07.184Z,83.02
2018-10-19T05:54:07.106Z,83.12
2018-10-19T05:55:07.109Z,83
2018-10-19T05:56:07.263Z,83.02
2018-10-19T05:57:07.411Z,82.86
2018-10-19T05:58:07.344Z,82.81
2018-10-19T05:59:07.527Z,82.81
2018-10-19T06:00:07.143Z,82.77
2018-10-19T06:01:07.090Z,82.72
2018-10-19T06:02:07.277Z,82.77
2018-10-19T06:03:07.270Z,82.87
2018-10-19T06:04:07.171Z,82.97
2018-10-19T06:05:07.473Z,82.91
2018-10-19T06:06:07.132Z,83.08
2018-10-19T06:07:07.199Z,83.06
2018-10-19T06:08:07.335Z,83.23
2018-10-19T06:09:07.128Z,83.21
2018-10-19T06:10:09.384Z,83.1
2018-10-19T06:11:09.458Z,82.87
2018-10-19T06:12:09.373Z,82.99
2018-10-19T06:13:09.462Z,83.12
2018-10-19T06:14:09.475Z,83.1
2018-10-19T06:15:09.414Z,83.05
2018-10-19T06:16:09.419Z,83.19
2018-10-19T06:17:09.467Z,83.15
2018-10-19T06:18:09.385Z,83.04
2018-10-19T06:19:09.709Z,83.19
2018-10-19T06:20:09.481Z,83.05
2018-10-19T06:21:09.452Z,82.59
2018-10-19T06:22:09.422Z,82.73
2018-10-19T06:23:09.488Z,83.27
2018-10-19T06:24:09.344Z,82.91
2018-10-19T06:25:09.357Z,82.94
2018-10-19T06:26:09.801Z,82.98
2018-10-19T06:27:09.592Z,83.06
2018-10-19T06:28:09.407Z,83.03
2018-10-19T06:29:09.474Z,83.03
2018-10-19T06:30:09.360Z,83.12
2018-10-19T06:31:09.347Z,83.03
2018-10-19T06:32:09.360Z,83.05
2018-10-19T06:33:09.347Z,83.17
2018-10-19T06:34:09.413Z,83.24
2018-10-19T06:35:09.499Z,83.43
2018-10-19T06:36:09.305Z,83.31
2018-10-19T06:37:09.317Z,83.17
2018-10-19T06:38:09.489Z,83.38
2018-10-19T06:39:09.345Z,83.07
2018-10-19T06:40:09.325Z,83.34
2018-10-19T06:41:09.512Z,83.53
2018-10-19T06:42:09.559Z,83.46
2018-10-19T06:43:09.405Z,83.17
2018-10-19T06:44:09.359Z,83.18
2018-10-19T06:45:09.476Z,83.86
2018-10-19T06:46:09.387Z,83.53
2018-10-19T06:47:09.808Z,83.54
2018-10-19T06:48:09.297Z,83.98
2018-10-19T06:49:09.474Z,84.02
2018-10-19T06:50:09.529Z,84.67
2018-10-19T06:51:09.509Z,85.19
2018-10-19T06:52:09.323Z,84.77
2018-10-19T06:53:09.442Z,84.6
2018-10-19T06:54:09.374Z,84.71
2018-10-19T06:55:09.417Z,84.74
2018-10-19T06:56:09.360Z,84.27
2018-10-19T06:57:09.323Z,84.86
2018-10-19T06:58:09.293Z,84.96
2018-10-19T06:59:09.724Z,84.76
2018-10-19T07:00:09.350Z,84.54
2018-10-19T07:01:09.351Z,84.61
2018-10-19T07:02:09.368Z,84.99
2018-10-19T07:03:09.344Z,84.94
2018-10-19T07:04:09.787Z,84.88
2018-10-19T07:05:09.340Z,84.85
2018-10-19T07:06:09.902Z,84.98
2018-10-19T07:07:09.294Z,85.05
2018-10-19T07:08:09.657Z,84.55
2018-10-19T07:09:09.402Z,84.44
2018-10-19T07:10:09.276Z,84.95
2018-10-19T07:11:09.348Z,85.04
2018-10-19T07:12:09.418Z,85
2018-10-19T07:13:09.338Z,85.05
2018-10-19T07:14:09.364Z,85.25
2018-10-19T07:15:09.269Z,85.17
2018-10-19T07:16:09.593Z,84.89
2018-10-19T07:17:09.488Z,84.91
2018-10-19T07:18:09.887Z,84.95
2018-10-19T07:19:09.386Z,85.48
2018-10-19T07:20:09.357Z,85.77
2018-10-19T07:21:09.388Z,85.83
2018-10-19T07:22:09.241Z,85.74
2018-10-19T07:23:09.460Z,85.85
2018-10-19T07:24:09.254Z,86.57
2018-10-19T07:26:09.485Z,86.08
2018-10-19T07:27:09.249Z,86.15
2018-10-19T07:28:09.257Z,86.63
2018-10-19T07:29:09.297Z,86.93
2018-10-19T07:30:09.482Z,86.63
2018-10-19T07:31:09.276Z,86.83
2018-10-19T07:32:09.414Z,87.74
2018-10-19T07:33:09.241Z,87.08
2018-10-19T07:34:09.319Z,86.7
2018-10-19T07:35:09.422Z,86.9
2018-10-19T07:36:09.421Z,87.01
2018-10-19T07:37:09.289Z,87.4
2018-10-19T07:38:09.371Z,87.49
2018-10-19T07:39:09.652Z,87.42
2018-10-19T07:40:09.386Z,87.35
2018-10-19T07:41:09.326Z,87.78
2018-10-19T07:42:09.388Z,86.94
2018-10-19T07:43:09.238Z,87.41
2018-10-19T07:44:09.297Z,88.12
2018-10-19T07:45:09.341Z,87.9
2018-10-19T07:46:09.248Z,88.18
2018-10-19T07:47:09.296Z,88.33
2018-10-19T07:48:09.486Z,88.43
2018-10-19T07:49:09.612Z,88.03
2018-10-19T07:50:09.342Z,88.28
2018-10-19T07:51:09.220Z,88.65
2018-10-19T07:52:09.211Z,88.32
2018-10-19T07:53:09.265Z,88.59
2018-10-19T07:54:09.347Z,88.46
2018-10-19T07:55:09.254Z,88.24
2018-10-19T07:56:09.387Z,88.24
2018-10-19T07:57:09.565Z,88.2
2018-10-19T07:58:09.375Z,88.09
2018-10-19T07:59:09.302Z,88
2018-10-19T08:00:09.337Z,88.35
2018-10-19T08:01:09.334Z,88.32
2018-10-19T08:02:09.310Z,88.83
2018-10-19T08:02:44.121Z,88.56
2018-10-19T08:03:43.712Z,88.58
2018-10-19T08:04:43.742Z,88.45
2018-10-19T08:05:44.124Z,88.2
2018-10-19T08:06:44.140Z,88.33
2018-10-19T08:07:43.905Z,88.5
2018-10-19T08:08:44.050Z,88.27
2018-10-19T08:09:43.775Z,88.12
2018-10-19T08:10:43.954Z,88.79
2018-10-19T08:11:43.839Z,88.44
2018-10-19T08:12:43.725Z,88.22
2018-10-19T08:13:43.769Z,88.73
2018-10-19T08:14:43.882Z,88.35
2018-10-19T08:15:43.881Z,88.06
2018-10-19T08:16:43.885Z,88.29
2018-10-19T08:17:43.706Z,87.89
2018-10-19T08:18:43.774Z,87.65
2018-10-19T08:19:43.899Z,87.69
2018-10-19T08:20:43.748Z,87.7
2018-10-19T08:21:44.042Z,87.57
2018-10-19T08:22:43.713Z,87.24
2018-10-19T08:23:43.754Z,86.99
2018-10-19T08:24:43.686Z,87.47
2018-10-19T08:25:43.712Z,87.01
2018-10-19T08:26:43.979Z,87.12
2018-10-19T08:27:44.209Z,87.07
2018-10-19T08:28:43.677Z,86.88
2018-10-19T08:29:43.721Z,86.95
2018-10-19T08:30:43.687Z,87.01
2018-10-19T08:31:44.100Z,86.65
2018-10-19T08:32:43.666Z,86.91
2018-10-19T08:33:43.676Z,87.18
2018-10-19T08:34:43.725Z,87.21
2018-10-19T08:35:43.681Z,87
2018-10-19T08:36:43.700Z,86.91
2018-10-19T08:37:43.699Z,86.93
2018-10-19T08:38:43.706Z,86.66
2018-10-19T08:39:43.668Z,86.77
2018-10-19T08:40:43.672Z,87.09
2018-10-19T08:41:43.779Z,87.14
2018-10-19T08:42:44.065Z,86.9
2018-10-19T08:43:43.705Z,86.55
2018-10-19T08:44:43.644Z,86.99
2018-10-19T08:45:43.746Z,86.69
2018-10-19T08:46:43.663Z,86.8
2018-10-19T08:47:43.725Z,86.84
2018-10-19T08:48:44.191Z,86.74
2018-10-19T08:49:43.762Z,86.82
2018-10-19T08:50:44.053Z,86.51
2018-10-19T08:51:43.727Z,86.35
2018-10-19T08:52:43.654Z,85.97
2018-10-19T08:53:43.886Z,86.38
2018-10-19T08:54:43.787Z,86.15
2018-10-19T08:55:43.659Z,86.1
2018-10-19T08:56:43.679Z,86.14
2018-10-19T08:57:43.826Z,85.96
2018-10-19T08:58:43.649Z,85.39
2018-10-19T08:59:43.998Z,85.17
2018-10-19T09:00:43.826Z,83.96
2018-10-19T09:01:43.644Z,84.78
2018-10-19T09:02:43.677Z,84.8
2018-10-19T09:03:43.610Z,84.03
2018-10-19T09:04:43.624Z,83.35
2018-10-19T09:05:43.635Z,83.31
2018-10-19T09:06:43.660Z,83.34
2018-10-19T09:07:44.050Z,83.43
2018-10-19T09:08:43.653Z,83.18
2018-10-19T09:09:43.675Z,82.96
2018-10-19T09:10:43.918Z,82.94
2018-10-19T09:11:43.716Z,82.49
2018-10-19T09:12:43.749Z,82.73
2018-10-19T09:13:43.639Z,82.63
2018-10-19T09:14:43.657Z,82.4
2018-10-19T09:15:43.631Z,82.07
2018-10-19T09:16:43.623Z,81.3
2018-10-19T09:17:43.650Z,80.97
2018-10-19T09:18:43.904Z,80.99
2018-10-19T09:19:43.620Z,80.98
2018-10-19T09:20:43.688Z,80.93
2018-10-19T09:21:43.639Z,80.92
2018-10-19T09:22:43.745Z,81.31
2018-10-19T09:23:43.577Z,80.68
2018-10-19T09:24:43.631Z,80.95
2018-10-19T09:25:43.627Z,80.47
2018-10-19T09:26:43.637Z,79.76
2018-10-19T09:27:43.635Z,79.46
2018-10-19T09:28:43.725Z,80.09
2018-10-19T09:29:43.630Z,79.56
2018-10-19T09:30:43.605Z,79.77
2018-10-19T09:31:43.629Z,79.35
2018-10-19T09:32:43.611Z,79.44
2018-10-19T09:33:43.804Z,79.39
2018-10-19T09:34:43.583Z,79.34
2018-10-19T09:35:43.685Z,79.42
2018-10-19T09:36:43.805Z,79.2
2018-10-19T09:37:43.942Z,78.76
2018-10-19T09:38:43.762Z,79.18
2018-10-19T09:39:43.618Z,78.88
2018-10-19T09:40:43.649Z,78.52
2018-10-19T09:41:43.633Z,78.15
2018-10-19T09:42:43.645Z,78.14
2018-10-19T09:43:43.588Z,78.4
2018-10-19T09:44:43.803Z,78.02
2018-10-19T09:45:43.582Z,77.63
2018-10-19T09:46:43.590Z,77.69
2018-10-19T09:47:43.691Z,77.59
2018-10-19T09:48:43.616Z,77.38
2018-10-19T09:49:43.631Z,76.61
2018-10-19T09:50:43.646Z,77.23
2018-10-19T09:51:43.616Z,76.6
2018-10-19T09:52:43.680Z,77.16
2018-10-19T09:53:43.605Z,77.14
2018-10-19T09:54:43.857Z,76.64
2018-10-19T09:55:43.685Z,77.16
2018-10-19T09:56:43.667Z,76.5
2018-10-19T09:57:43.630Z,76.34
2018-10-19T09:58:43.593Z,76.41
2018-10-19T09:59:43.615Z,76.39
2018-10-19T10:00:43.785Z,76.26
2018-10-19T10:01:43.697Z,76.68
2018-10-19T10:02:43.579Z,75.99
2018-10-19T10:03:43.654Z,76.19
2018-10-19T10:04:43.636Z,75.82
2018-10-19T10:05:43.626Z,75.76
2018-10-19T10:06:43.654Z,75.2
2018-10-19T10:07:43.609Z,74.58
2018-10-19T10:08:43.612Z,74.65
2018-10-19T10:09:43.604Z,75.19
2018-10-19T10:10:43.686Z,74.91
2018-10-19T10:11:43.542Z,74.19
2018-10-19T10:12:43.552Z,73.94
2018-10-19T10:13:43.655Z,74.13
2018-10-19T10:14:43.612Z,73.42
2018-10-19T10:15:43.569Z,73.84
2018-10-19T10:16:43.657Z,74.07
2018-10-19T10:17:43.638Z,74.36
2018-10-19T10:18:43.551Z,74.41
2018-10-19T10:19:43.662Z,74.82
2018-10-19T10:20:43.544Z,73.85
2018-10-19T10:21:43.601Z,73.06
2018-10-19T10:22:43.651Z,73.09
2018-10-19T10:23:43.844Z,73.15
2018-10-19T10:24:43.630Z,73.04
2018-10-19T10:25:44.052Z,73.01
2018-10-19T10:26:43.561Z,73.88
2018-10-19T10:27:44.068Z,72.84
2018-10-19T10:28:43.589Z,72.27
2018-10-19T10:29:43.540Z,72.04
2018-10-19T10:30:43.519Z,71.83
2018-10-19T10:31:43.726Z,72.2
2018-10-19T10:32:43.521Z,72.14
2018-10-19T10:33:43.528Z,71.79
2018-10-19T10:34:43.597Z,72.57
2018-10-19T10:35:43.542Z,72.07
2018-10-19T10:36:43.515Z,72.02
2018-10-19T10:37:43.497Z,72.03
2018-10-19T10:38:43.600Z,72.59
2018-10-19T10:39:43.514Z,72.16
2018-10-19T10:40:43.500Z,71.67
2018-10-19T10:41:43.524Z,71.68
2018-10-19T10:42:43.529Z,72.05
2018-10-19T10:43:43.561Z,71.96
2018-10-19T10:44:43.500Z,71.39
2018-10-19T10:45:43.507Z,72.01
2018-10-19T10:46:43.705Z,72.06
2018-10-19T10:47:43.568Z,71.53
2018-10-19T10:48:43.658Z,72.02
2018-10-19T10:49:43.522Z,72.08
2018-10-19T10:50:43.489Z,71.96
2018-10-19T10:51:43.512Z,71.7
2018-10-19T10:52:43.540Z,71.7
2018-10-19T10:53:43.550Z,71.81
2018-10-19T10:54:43.489Z,71.39
2018-10-19T10:55:43.579Z,71.68
2018-10-19T10:56:43.553Z,71.46
2018-10-19T10:57:43.540Z,71.28
2018-10-19T10:58:43.537Z,70.98
2018-10-19T10:59:43.494Z,70.64
2018-10-19T11:00:43.533Z,71.05
2018-10-19T11:01:43.528Z,70.73
2018-10-19T11:02:43.468Z,70.54
2018-10-19T11:03:43.638Z,70.87
2018-10-19T11:04:43.490Z,70.82
2018-10-19T11:05:43.474Z,70.46
2018-10-19T11:06:44.250Z,70.69
2018-10-19T11:07:43.731Z,71.28
2018-10-19T11:08:43.495Z,70.61
2018-10-19T11:09:43.460Z,70.68
2018-10-19T11:10:43.661Z,70.95
2018-10-19T11:11:43.668Z,70.76
2018-10-19T11:12:43.593Z,70.83
2018-10-19T11:13:43.524Z,70.59
2018-10-19T11:14:43.463Z,70.96
2018-10-19T11:15:43.459Z,70.08
2018-10-19T11:16:43.517Z,70.66
2018-10-19T11:17:43.556Z,70.97
2018-10-19T11:18:43.591Z,70.4
2018-10-19T11:19:43.510Z,70.44
2018-10-19T11:20:44.043Z,70.07
2018-10-19T11:21:43.431Z,69.45
2018-10-19T11:22:43.487Z,70.24
2018-10-19T11:23:43.473Z,70.58
2018-10-19T11:24:43.592Z,70.29
2018-10-19T11:25:43.577Z,68.82
2018-10-19T11:26:43.611Z,68.91
2018-10-19T11:27:43.549Z,68.56
2018-10-19T11:28:43.639Z,68.49
2018-10-19T11:29:43.637Z,68.57
2018-10-19T11:30:43.518Z,67.96
2018-10-19T11:31:43.445Z,67.74
2018-10-19T11:32:43.429Z,68.27
2018-10-19T11:33:43.546Z,68.61
2018-10-19T11:34:43.726Z,68.34
2018-10-19T11:35:43.496Z,67.84
2018-10-19T11:36:43.511Z,67.55
2018-10-19T11:37:43.928Z,67.69
2018-10-19T11:38:43.441Z,67.75
2018-10-19T11:39:43.421Z,68.03
2018-10-19T11:40:43.462Z,67.67
2018-10-19T11:41:43.537Z,67.57
2018-10-19T11:42:43.541Z,67.28
2018-10-19T11:43:43.450Z,67.16
2018-10-19T11:44:43.432Z,67.04
2018-10-19T11:45:43.492Z,67.3
2018-10-19T11:46:43.506Z,67.69
2018-10-19T11:47:43.424Z,67.47
2018-10-19T11:48:43.496Z,67.25
2018-10-19T11:49:43.458Z,67.13
2018-10-19T11:50:43.513Z,67.4
2018-10-19T11:51:43.560Z,67.63
2018-10-19T11:52:43.924Z,67.46
2018-10-19T11:53:43.727Z,67.19
2018-10-19T11:54:43.437Z,67.25
2018-10-19T11:55:43.437Z,66.86
2018-10-19T11:56:43.427Z,66.92
2018-10-19T11:57:43.451Z,66.98
2018-10-19T11:58:43.611Z,66.96
2018-10-19T11:59:43.447Z,66.62
2018-10-19T12:00:43.593Z,66.07
2018-10-19T12:01:43.399Z,65.82
2018-10-19T12:02:43.410Z,65.96
2018-10-19T12:03:43.516Z,66.21
2018-10-19T12:04:43.511Z,66.6
2018-10-19T12:05:43.382Z,66.73
2018-10-19T12:06:43.389Z,66.69
2018-10-19T12:07:43.450Z,66.7
2018-10-19T12:08:43.394Z,66.74
2018-10-19T12:09:43.571Z,67.01
2018-10-19T12:10:43.440Z,66.83
2018-10-19T12:11:43.385Z,66.99
2018-10-19T12:12:43.376Z,66.74
2018-10-19T12:13:43.410Z,66.59
2018-10-19T12:14:43.362Z,66
2018-10-19T12:15:43.382Z,65.88
2018-10-19T12:16:43.555Z,66.09
2018-10-19T12:17:43.394Z,66.09
2018-10-19T12:18:43.481Z,65.65
2018-10-19T12:19:43.362Z,64.68
2018-10-19T12:20:43.370Z,64.54
2018-10-19T12:21:43.404Z,64.84
2018-10-19T12:22:43.365Z,65.01
2018-10-19T12:23:43.375Z,65.05
2018-10-19T12:24:43.363Z,64.83
2018-10-19T12:25:43.365Z,64.8
2018-10-19T12:26:43.429Z,64.63
2018-10-19T12:27:43.357Z,64.69
2018-10-19T12:28:43.367Z,64.61
2018-10-19T12:29:43.520Z,64.59
2018-10-19T12:30:43.442Z,64.37
2018-10-19T12:31:43.392Z,64.31
2018-10-19T12:32:43.814Z,64.25
2018-10-19T12:33:43.418Z,64.01
2018-10-19T12:34:43.387Z,63.82
2018-10-19T12:35:43.731Z,63.67
2018-10-19T12:36:43.358Z,63.53
2018-10-19T12:37:43.373Z,64.08
2018-10-19T12:38:43.659Z,64.05
2018-10-19T12:39:43.446Z,64.09
2018-10-19T12:40:43.349Z,64.03
2018-10-19T12:41:43.354Z,64.3
2018-10-19T12:42:43.535Z,64.13
2018-10-19T12:43:43.375Z,64.05
2018-10-19T12:44:43.357Z,64.09
2018-10-19T12:45:43.462Z,64.1
2018-10-19T12:46:43.548Z,64.07
2018-10-19T12:47:43.407Z,64.05
2018-10-19T12:48:43.381Z,63.99
2018-10-19T12:49:43.493Z,63.91
2018-10-19T12:50:43.634Z,63.86
2018-10-19T12:51:43.383Z,63.96
2018-10-19T12:52:44.158Z,64.05
2018-10-19T12:53:43.344Z,63.91
2018-10-19T12:54:43.319Z,64.3
2018-10-19T12:55:43.335Z,64.79
2018-10-19T12:56:43.635Z,64.73
2018-10-19T12:57:43.571Z,63.99
2018-10-19T12:58:43.389Z,63.95